createdAt,value
2019-04-26T00:01:19.190Z,101767.22
2019-04-26T00:03:49.525Z,101763.99
2019-04-26T00:06:20.097Z,101762.63
2019-04-26T00:08:54.940Z,101769.63
2019-04-26T00:11:42.539Z,101769.67
2019-04-26T00:14:29.849Z,101772.45
2019-04-26T00:17:13.414Z,101770.35
2019-04-26T00:19:43.887Z,101769.98
2019-04-26T00:22:14.129Z,101760.83
2019-04-26T00:24:44.812Z,101763.20
2019-04-26T00:27:14.793Z,101755.37
2019-04-26T00:29:44.744Z,101752.67
2019-04-26T00:32:15.051Z,101757.76
2019-04-26T00:34:44.962Z,101761.98
2019-04-26T00:37:15.860Z,101754.79
2019-04-26T00:39:45.539Z,101752.70
2019-04-26T00:42:16.495Z,101749.58
2019-04-26T00:44:46.898Z,101752.17
2019-04-26T00:47:19.097Z,101753.67
2019-04-26T00:49:49.435Z,101754.49
2019-04-26T00:52:19.950Z,101747.41
2019-04-26T00:54:49.843Z,101754.84
2019-04-26T00:57:20.424Z,101756.02
2019-04-26T00:59:51.795Z,101745.86
2019-04-26T01:02:33.507Z,101750.66
2019-04-26T01:05:03.460Z,101747.27
2019-04-26T01:07:33.253Z,101737.81
2019-04-26T01:10:03.094Z,101740.41
2019-04-26T01:12:32.913Z,101735.84
2019-04-26T01:15:02.971Z,101729.94
2019-04-26T01:17:32.722Z,101730.03
2019-04-26T01:20:03.843Z,101729.59
2019-04-26T01:22:36.415Z,101730.34
2019-04-26T01:25:07.365Z,101731.28
2019-04-26T01:27:38.422Z,101723.48
2019-04-26T01:30:11.830Z,101726.54
2019-04-26T01:32:43.001Z,101726.19
2019-04-26T01:35:12.996Z,101715.65
2019-04-26T01:37:45.580Z,101714.20
2019-04-26T01:40:20.585Z,101710.09
2019-04-26T01:43:01.316Z,101695.81
2019-04-26T01:45:42.389Z,101692.82
2019-04-26T01:48:42.432Z,101689.25
2019-04-26T01:51:15.746Z,101683.03
2019-04-26T01:53:48.159Z,101672.40
2019-04-26T01:56:22.405Z,101668.75
2019-04-26T01:58:54.574Z,101670.34
2019-04-26T02:01:42.196Z,101673.09
2019-04-26T02:04:12.606Z,101674.19
2019-04-26T02:06:42.516Z,101673.22
2019-04-26T02:09:12.854Z,101666.75
2019-04-26T02:11:42.959Z,101662.70
2019-04-26T02:14:13.254Z,101664.28
2019-04-26T02:16:43.505Z,101667.35
2019-04-26T02:19:13.347Z,101662.48
2019-04-26T02:21:49.715Z,101660.97
2019-04-26T02:24:27.991Z,101658.69
2019-04-26T02:26:59.386Z,101655.72
2019-04-26T02:29:30.403Z,101657.86
2019-04-26T02:32:04.673Z,101663.05
2019-04-26T02:34:37.974Z,101667.51
2019-04-26T02:37:10.479Z,101673.77
2019-04-26T02:39:41.970Z,101664.25
2019-04-26T02:42:38.883Z,101660.59
2019-04-26T02:45:40.071Z,101667.94
2019-04-26T02:48:21.430Z,101668.59
2019-04-26T02:50:57.127Z,101671.33
2019-04-26T02:54:04.722Z,101667.34
2019-04-26T02:56:39.354Z,101662.43
2019-04-26T02:59:40.977Z,101669.25
2019-04-26T03:02:37.358Z,101663.98
2019-04-26T03:05:10.326Z,101670.78
2019-04-26T03:07:51.081Z,101679.27
2019-04-26T03:10:24.908Z,101676.86
2019-04-26T03:12:57.185Z,101674.22
2019-04-26T03:15:44.405Z,101677.83
2019-04-26T03:18:48.113Z,101679.91
2019-04-26T03:21:25.910Z,101686.39
2019-04-26T03:24:06.684Z,101684.29
2019-04-26T03:26:56.416Z,101686.98
2019-04-26T03:29:48.400Z,101688.84
2019-04-26T03:32:57.901Z,101685.84
2019-04-26T03:35:57.824Z,101695.70
2019-04-26T03:38:53.640Z,101689.75
2019-04-26T03:41:38.986Z,101688.94
2019-04-26T03:44:26.261Z,101698.30
2019-04-26T03:47:01.229Z,101695.11
2019-04-26T03:49:54.530Z,101695.81
2019-04-26T03:52:59.621Z,101696.98
2019-04-26T03:55:52.853Z,101694.58
2019-04-26T03:58:30.380Z,101702.44
2019-04-26T04:01:08.055Z,101698.54
2019-04-26T04:03:55.924Z,101705.42
2019-04-26T04:06:29.797Z,101703.28
2019-04-26T04:09:05.709Z,101702.98
2019-04-26T04:12:10.129Z,101707.63
2019-04-26T04:14:52.226Z,101715.30
2019-04-26T04:17:51.731Z,101721.24
2019-04-26T04:21:05.816Z,101727.09
2019-04-26T04:24:18.827Z,101736.95
2019-04-26T04:27:19.603Z,101731.87
2019-04-26T04:30:12.407Z,101731.61
2019-04-26T04:33:29.027Z,101733.88
2019-04-26T04:36:05.317Z,101729.13
2019-04-26T04:39:20.058Z,101733.18
2019-04-26T04:42:13.936Z,101735.84
2019-04-26T04:45:25.641Z,101740.41
2019-04-26T04:48:19.774Z,101740.57
2019-04-26T04:51:11.779Z,101734.94
2019-04-26T04:53:59.651Z,101726.98
2019-04-26T04:57:05.149Z,101737.31
2019-04-26T04:59:46.121Z,101737.38
2019-04-26T05:02:32.390Z,101740.50
2019-04-26T05:05:28.864Z,101739.83
2019-04-26T05:08:19.356Z,101746.14
2019-04-26T05:11:02.815Z,101741.73
2019-04-26T05:13:45.192Z,101737.44
2019-04-26T05:16:33.205Z,101733.00
2019-04-26T05:19:51.362Z,101730.88
2019-04-26T05:23:03.614Z,101731.19
2019-04-26T05:26:37.775Z,101730.56
2019-04-26T05:29:29.623Z,101720.47
2019-04-26T05:32:26.544Z,101723.78
2019-04-26T05:35:07.095Z,101718.48
2019-04-26T05:38:18.706Z,101714.54
2019-04-26T05:41:19.437Z,101714.22
2019-04-26T05:44:20.658Z,101722.18
2019-04-26T05:47:34.952Z,101725.56
2019-04-26T05:51:02.174Z,101724.93
2019-04-26T05:54:39.190Z,101728.95
2019-04-26T05:57:30.051Z,101722.88
2019-04-26T06:00:34.835Z,101722.33
2019-04-26T06:03:40.722Z,101720.18
2019-04-26T06:06:23.844Z,101715.21
2019-04-26T06:09:52.875Z,101722.13
2019-04-26T06:12:39.367Z,101717.75
2019-04-26T06:15:33.642Z,101720.31
2019-04-26T06:18:55.125Z,101723.98
2019-04-26T06:22:07.535Z,101715.95
2019-04-26T06:24:54.211Z,101712.73
2019-04-26T06:27:43.681Z,101722.41
2019-04-26T06:30:21.245Z,101718.15
2019-04-26T06:33:11.769Z,101721.23
2019-04-26T06:35:45.081Z,101720.07
2019-04-26T06:39:11.910Z,101721.00
2019-04-26T06:42:09.499Z,101718.98
2019-04-26T06:45:31.774Z,101731.59
2019-04-26T06:48:11.962Z,101738.39
2019-04-26T06:50:47.226Z,101738.52
2019-04-26T06:53:40.746Z,101734.34
2019-04-26T06:56:35.410Z,101732.59
2019-04-26T06:59:35.764Z,101731.75
2019-04-26T07:02:04.116Z,101733.59
2019-04-26T07:05:05.650Z,101734.75
2019-04-26T07:07:54.472Z,101735.21
2019-04-26T07:11:27.814Z,101734.28
2019-04-26T07:14:29.239Z,101734.21
2019-04-26T07:17:05.378Z,101732.77
2019-04-26T07:20:28.780Z,101729.19
2019-04-26T07:23:40.179Z,101724.43
2019-04-26T07:26:55.249Z,101721.87
2019-04-26T07:30:07.223Z,101715.11
2019-04-26T07:33:12.722Z,101713.92
2019-04-26T07:36:28.902Z,101717.37
2019-04-26T07:39:20.257Z,101720.44
2019-04-26T07:42:47.947Z,101719.19
2019-04-26T07:45:51.479Z,101725.58
2019-04-26T07:48:48.132Z,101719.29
2019-04-26T07:51:58.704Z,101719.59
2019-04-26T07:54:54.322Z,101721.80
2019-04-26T07:57:51.216Z,101724.27
2019-04-26T08:00:26.978Z,101725.73
2019-04-26T08:03:12.809Z,101720.95
2019-04-26T08:05:53.103Z,101712.03
2019-04-26T08:08:25.814Z,101709.73
2019-04-26T08:11:18.215Z,101714.28
2019-04-26T08:14:06.129Z,101712.28
2019-04-26T08:16:57.735Z,101713.41
2019-04-26T08:19:30.332Z,101719.51
2019-04-26T08:22:14.853Z,101715.63
2019-04-26T08:24:37.901Z,101718.45
2019-04-26T08:27:23.302Z,101716.03
2019-04-26T08:29:52.525Z,101696.56
2019-04-26T08:32:28.194Z,101719.67
2019-04-26T08:35:08.203Z,101721.37
2019-04-26T08:37:52.673Z,101710.19
2019-04-26T08:40:30.779Z,101728.52
2019-04-26T08:43:30.849Z,101721.39
2019-04-26T08:46:23.632Z,101718.67
2019-04-26T08:49:20.545Z,101728.89
2019-04-26T08:51:52.132Z,101718.34
2019-04-26T08:54:28.962Z,101717.50
2019-04-26T08:57:05.937Z,101717.26
2019-04-26T08:59:39.815Z,101712.16
2019-04-26T09:02:27.990Z,101701.37
2019-04-26T09:05:19.711Z,101697.55
2019-04-26T09:07:53.500Z,101692.89
2019-04-26T09:10:26.430Z,101698.53
2019-04-26T09:12:58.979Z,101695.07
2019-04-26T09:15:47.975Z,101697.77
2019-04-26T09:18:19.053Z,101711.64
2019-04-26T09:20:49.080Z,101705.69
2019-04-26T09:23:40.294Z,101716.69
2019-04-26T09:26:12.548Z,101714.49
2019-04-26T09:29:00.576Z,101706.88
2019-04-26T09:31:43.080Z,101713.48
2019-04-26T09:34:14.507Z,101706.48
2019-04-26T09:36:45.040Z,101705.45
2019-04-26T09:39:15.719Z,101705.58
2019-04-26T09:41:45.616Z,101697.27
2019-04-26T09:44:41.334Z,101691.52
2019-04-26T09:47:36.625Z,101696.68
2019-04-26T09:50:41.416Z,101693.43
2019-04-26T09:53:11.180Z,101694.23
2019-04-26T09:55:41.511Z,101687.48
2019-04-26T09:58:11.388Z,101682.67
2019-04-26T10:00:44.186Z,101671.77
2019-04-26T10:03:12.699Z,101672.81
2019-04-26T10:05:42.542Z,101673.76
2019-04-26T10:08:14.205Z,101670.98
2019-04-26T10:10:43.885Z,101666.59
2019-04-26T10:13:50.831Z,101652.80
2019-04-26T10:16:43.431Z,101652.12
2019-04-26T10:19:16.300Z,101651.66
2019-04-26T10:21:46.215Z,101652.84
2019-04-26T10:24:16.028Z,101640.52
2019-04-26T10:26:45.792Z,101646.25
2019-04-26T10:29:15.577Z,101645.61
2019-04-26T10:31:47.563Z,101637.34
2019-04-26T10:34:18.284Z,101653.47
2019-04-26T10:36:49.338Z,101650.66
2019-04-26T10:39:19.221Z,101651.46
2019-04-26T10:41:49.041Z,101647.73
2019-04-26T10:44:19.182Z,101648.81
2019-04-26T10:46:55.474Z,101656.19
2019-04-26T10:49:48.504Z,101651.89
2019-04-26T10:52:37.767Z,101646.38
2019-04-26T10:55:27.758Z,101643.00
2019-04-26T10:58:05.409Z,101634.48
2019-04-26T11:00:38.831Z,101641.62
2019-04-26T11:03:08.544Z,101630.06
2019-04-26T11:05:39.713Z,101629.25
2019-04-26T11:08:09.606Z,101624.97
2019-04-26T11:10:48.390Z,101626.52
2019-04-26T11:13:12.436Z,101624.16
2019-04-26T11:15:42.458Z,101617.58
2019-04-26T11:18:19.838Z,101618.45
2019-04-26T11:20:47.817Z,101611.59
2019-04-26T11:23:17.616Z,101612.03
2019-04-26T11:25:48.777Z,101610.59
2019-04-26T11:28:21.521Z,101610.44
2019-04-26T11:30:51.993Z,101613.44
2019-04-26T11:33:22.753Z,101608.60
2019-04-26T11:35:52.557Z,101616.22
2019-04-26T11:38:22.598Z,101621.05
2019-04-26T11:41:06.031Z,101622.42
2019-04-26T11:43:25.037Z,101609.77
2019-04-26T11:46:04.191Z,101603.64
2019-04-26T11:48:29.191Z,101597.00
2019-04-26T11:50:59.227Z,101602.86
2019-04-26T11:53:29.126Z,101597.36
2019-04-26T11:56:00.229Z,101601.63
2019-04-26T11:58:30.678Z,101586.41
2019-04-26T12:01:02.867Z,101593.08
2019-04-26T12:03:32.661Z,101583.38
2019-04-26T12:06:09.419Z,101597.06
2019-04-26T12:08:50.649Z,101579.77
2019-04-26T12:11:26.167Z,101582.63
2019-04-26T12:13:55.375Z,101586.37
2019-04-26T12:16:23.755Z,101591.80
2019-04-26T12:18:53.674Z,101588.87
2019-04-26T12:21:23.648Z,101594.59
2019-04-26T12:23:55.461Z,101581.99
2019-04-26T12:26:24.844Z,101578.66
2019-04-26T12:28:54.513Z,101574.24
2019-04-26T12:31:24.297Z,101574.63
2019-04-26T12:33:54.197Z,101567.38
2019-04-26T12:36:24.184Z,101572.98
2019-04-26T12:38:53.827Z,101563.64
2019-04-26T12:41:39.438Z,101556.36
2019-04-26T12:43:59.537Z,101552.94
2019-04-26T12:46:37.010Z,101551.24
2019-04-26T12:49:06.937Z,101554.44
2019-04-26T12:51:38.238Z,101548.09
2019-04-26T12:54:09.940Z,101541.25
2019-04-26T12:56:39.957Z,101542.70
2019-04-26T12:59:09.765Z,101547.65
2019-04-26T13:01:42.667Z,101538.20
2019-04-26T13:04:11.325Z,101539.78
2019-04-26T13:06:49.433Z,101536.95
2019-04-26T13:09:22.012Z,101526.67
2019-04-26T13:12:09.354Z,101511.28
2019-04-26T13:15:04.073Z,101521.34
2019-04-26T13:17:45.883Z,101523.97
2019-04-26T13:20:16.978Z,101522.78
2019-04-26T13:22:50.303Z,101519.42
2019-04-26T13:25:26.274Z,101515.37
2019-04-26T13:27:49.916Z,101520.25
2019-04-26T13:30:32.276Z,101511.75
2019-04-26T13:32:53.341Z,101510.95
2019-04-26T13:35:24.176Z,101507.36
2019-04-26T13:37:54.080Z,101507.36
2019-04-26T13:40:25.654Z,101504.50
2019-04-26T13:42:55.659Z,101512.62
2019-04-26T13:45:42.826Z,101507.84
2019-04-26T13:48:31.469Z,101505.36
2019-04-26T13:51:05.843Z,101498.36
2019-04-26T13:53:35.965Z,101507.71
2019-04-26T13:56:06.087Z,101503.67
2019-04-26T13:58:36.010Z,101513.58
2019-04-26T14:01:06.993Z,101506.52
2019-04-26T14:03:36.819Z,101501.05
2019-04-26T14:06:06.703Z,101501.37
2019-04-26T14:08:36.493Z,101498.36
2019-04-26T14:11:07.462Z,101505.38
2019-04-26T14:13:37.373Z,101497.89
2019-04-26T14:16:07.249Z,101502.30
2019-04-26T14:18:39.081Z,101506.05
2019-04-26T14:21:09.043Z,101498.07
2019-04-26T14:23:51.089Z,101500.82
2019-04-26T14:26:25.193Z,101495.88
2019-04-26T14:29:01.881Z,101486.60
2019-04-26T14:31:31.827Z,101491.03
2019-04-26T14:34:05.358Z,101494.67
2019-04-26T14:36:32.944Z,101491.48
2019-04-26T14:39:05.944Z,101499.55
2019-04-26T14:41:34.567Z,101495.61
2019-04-26T14:44:15.275Z,101502.23
2019-04-26T14:46:48.170Z,101498.67
2019-04-26T14:49:07.412Z,101498.77
2019-04-26T14:51:37.252Z,101499.22
2019-04-26T14:54:11.017Z,101501.38
2019-04-26T14:56:51.494Z,101492.69
2019-04-26T14:59:11.886Z,101489.36
2019-04-26T15:02:06.158Z,101495.83
2019-04-26T15:04:58.160Z,101493.35
2019-04-26T15:07:28.232Z,101499.09
2019-04-26T15:09:58.981Z,101498.94
2019-04-26T15:12:28.860Z,101498.34
2019-04-26T15:14:58.833Z,101499.77
2019-04-26T15:17:28.645Z,101502.23
2019-04-26T15:19:58.504Z,101489.91
2019-04-26T15:22:28.374Z,101491.57
2019-04-26T15:24:58.166Z,101486.39
2019-04-26T15:27:32.251Z,101489.00
2019-04-26T15:30:01.527Z,101487.98
2019-04-26T15:32:35.126Z,101476.84
2019-04-26T15:35:04.009Z,101493.73
2019-04-26T15:37:33.924Z,101493.08
2019-04-26T15:40:14.253Z,101484.91
2019-04-26T15:43:02.553Z,101494.50
2019-04-26T15:45:52.776Z,101485.22
2019-04-26T15:48:56.663Z,101480.33
2019-04-26T15:51:29.339Z,101484.72
2019-04-26T15:53:59.133Z,101478.62
2019-04-26T15:56:28.966Z,101483.33
2019-04-26T15:59:00.101Z,101474.78
2019-04-26T16:01:29.877Z,101473.77
2019-04-26T16:03:59.825Z,101470.92
2019-04-26T16:06:29.688Z,101477.47
2019-04-26T16:08:59.568Z,101471.94
2019-04-26T16:11:29.579Z,101469.55
2019-04-26T16:13:59.439Z,101483.50
2019-04-26T16:16:32.444Z,101474.33
2019-04-26T16:19:00.946Z,101471.03
2019-04-26T16:21:32.353Z,101462.97
2019-04-26T16:24:02.759Z,101470.95
2019-04-26T16:26:33.006Z,101471.50
2019-04-26T16:29:25.114Z,101477.09
2019-04-26T16:32:16.918Z,101481.06
2019-04-26T16:34:47.776Z,101480.16
2019-04-26T16:37:21.846Z,101481.22
2019-04-26T16:39:48.704Z,101476.37
2019-04-26T16:42:19.917Z,101484.38
2019-04-26T16:44:49.668Z,101481.20
2019-04-26T16:47:19.514Z,101475.80
2019-04-26T16:49:49.485Z,101480.38
2019-04-26T16:52:19.343Z,101475.66
2019-04-26T16:54:49.307Z,101470.18
2019-04-26T16:57:19.332Z,101472.97
2019-04-26T16:59:56.970Z,101469.11
2019-04-26T17:02:26.396Z,101462.84
2019-04-26T17:04:53.546Z,101463.57
2019-04-26T17:07:27.458Z,101468.69
2019-04-26T17:09:59.342Z,101455.36
2019-04-26T17:12:26.392Z,101454.69
2019-04-26T17:14:56.042Z,101453.90
2019-04-26T17:17:25.905Z,101455.77
2019-04-26T17:19:55.781Z,101461.07
2019-04-26T17:22:44.494Z,101457.91
2019-04-26T17:25:24.289Z,101456.23
2019-04-26T17:27:52.962Z,101461.17
2019-04-26T17:30:25.385Z,101455.63
2019-04-26T17:32:55.435Z,101465.41
2019-04-26T17:35:25.592Z,101466.96
2019-04-26T17:37:57.375Z,101466.22
2019-04-26T17:40:30.175Z,101468.64
2019-04-26T17:43:00.415Z,101471.67
2019-04-26T17:45:30.670Z,101481.91
2019-04-26T17:48:01.464Z,101475.51
2019-04-26T17:50:31.463Z,101481.91
2019-04-26T17:53:01.492Z,101481.20
2019-04-26T17:55:33.604Z,101484.30
2019-04-26T17:58:11.997Z,101482.86
2019-04-26T18:00:45.800Z,101488.63
2019-04-26T18:03:11.674Z,101489.83
2019-04-26T18:05:55.788Z,101495.55
2019-04-26T18:08:33.549Z,101492.22
2019-04-26T18:10:44.715Z,101499.17
2019-04-26T18:13:16.444Z,101502.52
2019-04-26T18:15:48.510Z,101501.22
2019-04-26T18:18:35.601Z,101507.97
2019-04-26T18:21:23.271Z,101511.55
2019-04-26T18:23:57.065Z,101521.33
2019-04-26T18:26:24.997Z,101528.02
2019-04-26T18:28:55.368Z,101528.72
2019-04-26T18:31:28.632Z,101520.03
2019-04-26T18:34:00.809Z,101514.16
2019-04-26T18:36:32.031Z,101510.57
2019-04-26T18:39:03.848Z,101505.47
2019-04-26T18:41:34.053Z,101512.44
2019-04-26T18:44:03.966Z,101507.86
2019-04-26T18:46:46.916Z,101513.00
2019-04-26T18:49:18.253Z,101514.65
2019-04-26T18:51:48.283Z,101518.48
2019-04-26T18:54:39.488Z,101518.37
2019-04-26T18:57:09.571Z,101517.25
2019-04-26T18:59:44.836Z,101517.92
2019-04-26T19:02:18.704Z,101513.17
2019-04-26T19:04:48.061Z,101510.50
2019-04-26T19:07:17.654Z,101508.08
2019-04-26T19:09:58.830Z,101512.05
2019-04-26T19:12:23.291Z,101501.36
2019-04-26T19:15:15.147Z,101508.39
2019-04-26T19:18:12.691Z,101504.13
2019-04-26T19:21:03.122Z,101497.52
2019-04-26T19:23:34.239Z,101503.57
2019-04-26T19:26:04.354Z,101514.75
2019-04-26T19:28:36.000Z,101515.67
2019-04-26T19:31:06.910Z,101514.44
2019-04-26T19:33:36.845Z,101512.50
2019-04-26T19:36:06.788Z,101515.42
2019-04-26T19:38:37.823Z,101511.27
2019-04-26T19:41:07.623Z,101513.49
2019-04-26T19:43:39.251Z,101510.89
2019-04-26T19:46:16.937Z,101517.78
2019-04-26T19:49:04.722Z,101506.88
2019-04-26T19:51:56.588Z,101512.68
2019-04-26T19:54:36.901Z,101504.80
2019-04-26T19:57:23.436Z,101501.64
2019-04-26T19:59:52.860Z,101505.26
2019-04-26T20:02:26.765Z,101506.56
2019-04-26T20:04:54.610Z,101507.86
2019-04-26T20:07:28.231Z,101509.55
2019-04-26T20:09:56.315Z,101510.11
2019-04-26T20:12:29.438Z,101499.14
2019-04-26T20:14:59.321Z,101503.78
2019-04-26T20:17:29.113Z,101504.70
2019-04-26T20:19:59.031Z,101504.24
2019-04-26T20:22:30.194Z,101496.33
2019-04-26T20:25:02.335Z,101495.17
2019-04-26T20:27:32.457Z,101495.17
2019-04-26T20:30:04.104Z,101487.47
2019-04-26T20:32:36.686Z,101487.89
2019-04-26T20:35:13.794Z,101493.63
2019-04-26T20:37:45.159Z,101489.30
2019-04-26T20:40:21.794Z,101482.89
2019-04-26T20:42:47.752Z,101474.56
2019-04-26T20:45:18.999Z,101481.38
2019-04-26T20:47:52.081Z,101495.34
2019-04-26T20:50:21.774Z,101497.28
2019-04-26T20:52:55.537Z,101493.20
2019-04-26T20:55:30.340Z,101494.92
2019-04-26T20:57:56.259Z,101497.63
2019-04-26T21:00:26.059Z,101495.77
2019-04-26T21:03:01.222Z,101499.67
2019-04-26T21:05:28.570Z,101498.51
2019-04-26T21:07:58.362Z,101497.20
2019-04-26T21:10:28.062Z,101489.86
2019-04-26T21:12:57.962Z,101486.38
2019-04-26T21:15:27.597Z,101493.55
2019-04-26T21:18:02.749Z,101485.33
2019-04-26T21:20:34.477Z,101489.51
2019-04-26T21:23:02.329Z,101484.52
2019-04-26T21:25:52.441Z,101481.97
2019-04-26T21:28:51.961Z,101481.24
2019-04-26T21:31:45.035Z,101480.75
2019-04-26T21:34:37.685Z,101478.11
2019-04-26T21:37:22.263Z,101476.04
2019-04-26T21:40:23.323Z,101485.49
2019-04-26T21:42:55.352Z,101478.15
2019-04-26T21:45:28.396Z,101481.63
2019-04-26T21:47:54.396Z,101480.17
2019-04-26T21:50:24.179Z,101476.59
2019-04-26T21:52:54.209Z,101477.19
2019-04-26T21:55:27.732Z,101473.67
2019-04-26T21:57:55.413Z,101472.69
2019-04-26T22:00:43.651Z,101478.34
2019-04-26T22:03:16.021Z,101473.28
2019-04-26T22:05:49.744Z,101470.69
2019-04-26T22:08:24.580Z,101479.66
2019-04-26T22:10:50.055Z,101472.77
2019-04-26T22:13:41.660Z,101473.15
2019-04-26T22:16:34.142Z,101472.94
2019-04-26T22:19:14.591Z,101467.17
2019-04-26T22:21:52.829Z,101472.38
2019-04-26T22:24:27.492Z,101462.14
2019-04-26T22:26:57.119Z,101459.93
2019-04-26T22:29:27.052Z,101458.17
2019-04-26T22:31:56.995Z,101462.88
2019-04-26T22:34:27.101Z,101454.13
2019-04-26T22:36:57.116Z,101449.17
2019-04-26T22:39:27.024Z,101443.99
2019-04-26T22:41:58.434Z,101444.45
2019-04-26T22:44:43.592Z,101430.92
2019-04-26T22:47:25.284Z,101430.61
2019-04-26T22:49:55.091Z,101420.37
2019-04-26T22:52:24.960Z,101420.94
2019-04-26T22:54:55.055Z,101423.54
2019-04-26T22:57:24.950Z,101430.88
2019-04-26T22:59:54.716Z,101430.15
2019-04-26T23:02:27.605Z,101432.97
2019-04-26T23:05:00.681Z,101427.13
2019-04-26T23:07:28.820Z,101426.54
2019-04-26T23:09:58.702Z,101419.94
2019-04-26T23:13:04.493Z,101424.89
2019-04-26T23:15:53.339Z,101422.78
2019-04-26T23:18:49.398Z,101414.77
2019-04-26T23:21:31.214Z,101408.90
2019-04-26T23:24:01.066Z,101408.45
2019-04-26T23:26:30.859Z,101407.95
2019-04-26T23:29:00.567Z,101413.12
2019-04-26T23:31:33.360Z,101401.20
2019-04-26T23:34:03.267Z,101400.84
2019-04-26T23:36:34.844Z,101403.06
2019-04-26T23:39:07.565Z,101391.36
2019-04-26T23:41:41.686Z,101389.71
2019-04-26T23:44:09.692Z,101390.80
2019-04-26T23:46:39.581Z,101381.52
2019-04-26T23:49:09.540Z,101386.02
2019-04-26T23:51:43.117Z,101379.97
2019-04-26T23:54:10.791Z,101378.95
2019-04-26T23:56:40.664Z,101366.20
2019-04-26T23:59:10.645Z,101369.25
